Pagina principală
METAR-TAF:

METAR-TAF

Aeroporturi :

Seneca, Oregon, Statele Unite ale Americii

Latitudine: 44-08-18N, longitudine: 118-58-54W, elevație: 1422 m

Observații meteo curente

Raportul a fost făcut în urmă cu 17 de minute, la 21:35 UTC
Vânt 7 kt de la Vest, variabil între Sud-vest și Vest/Nord-vest
Temperatură 14°C
Umiditate 31%
Presiune 1013 hPa
Vizibilitate: 16.1 km
Cer senin

METAR: KGCD 162135Z AUTO 27007KT 220V300 10SM CLR 14/M03 A2990 RMK AO2 T01411029

Ora: 14:52 (21:52 UTC)


TAF: lipsă

Observații și prognoze meteo pentru peste 4.000 de aeroporturi (rapoarte METAR și TAF).

Stațiile disponibile sunt reprezentate pe hartă prin puncte galbene și roșii.

Țineți indicatorul mouse-ului pe punctul dorit pentru a vedea denumirea stației.

Apoi, faceți clic pentru a vedea observațiile și prognozele meteorologice.

Pentru a schimba harta: Pentru mărire, faceți clic pe butoanele verzi cu cruce neagră; pentru micșorare, pe butonul verde cu o liniuță; pentru hărți învecinate, pe săgețile verzi.


METAR-TAF: